createdAt,value
2018-01-15T00:01:37.888Z,40.00
2018-01-15T00:03:40.560Z,39.37
2018-01-15T00:05:43.232Z,39.10
2018-01-15T00:07:45.882Z,37.93
2018-01-15T00:09:48.531Z,39.20
2018-01-15T00:11:51.217Z,37.03
2018-01-15T00:13:53.859Z,42.33
2018-01-15T00:15:57.278Z,37.83
2018-01-15T00:17:59.941Z,42.47
2018-01-15T00:20:02.618Z,36.87
2018-01-15T00:22:05.269Z,37.43
2018-01-15T00:24:07.927Z,37.63
2018-01-15T00:26:10.576Z,32.27
2018-01-15T00:28:13.470Z,36.97
2018-01-15T00:30:16.131Z,36.23
2018-01-15T00:32:18.795Z,34.80
2018-01-15T00:34:21.575Z,38.00
2018-01-15T00:36:24.219Z,36.30
2018-01-15T00:38:27.649Z,31.37
2018-01-15T00:40:30.293Z,39.67
2018-01-15T00:42:33.718Z,36.97
2018-01-15T00:44:36.403Z,36.40
2018-01-15T00:46:39.054Z,36.00
2018-01-15T00:48:41.717Z,35.73
2018-01-15T00:50:45.148Z,35.10
2018-01-15T00:52:47.797Z,33.70
2018-01-15T00:54:50.454Z,36.43
2018-01-15T00:56:53.902Z,33.87
2018-01-15T00:58:57.356Z,37.80
2018-01-15T01:00:59.993Z,35.37
2018-01-15T01:03:02.660Z,35.57
2018-01-15T01:05:06.103Z,37.57
2018-01-15T01:07:08.772Z,38.80
2018-01-15T01:09:11.420Z,37.40
2018-01-15T01:11:14.061Z,39.37
2018-01-15T01:13:16.733Z,42.10
2018-01-15T01:15:19.379Z,36.07
2018-01-15T01:17:22.044Z,32.40
2018-01-15T01:19:25.567Z,32.80
2018-01-15T01:21:28.226Z,30.90
2018-01-15T01:23:30.887Z,35.80
2018-01-15T01:25:34.346Z,34.63
2018-01-15T01:27:36.994Z,32.50
2018-01-15T01:29:39.709Z,33.37
2018-01-15T01:31:42.344Z,33.57
2018-01-15T01:33:44.984Z,36.30
2018-01-15T01:35:48.430Z,36.37
2018-01-15T01:37:51.068Z,33.10
2018-01-15T01:39:53.726Z,41.07
2018-01-15T01:41:57.160Z,30.57
2018-01-15T01:43:59.817Z,30.27
2018-01-15T01:46:02.798Z,28.67
2018-01-15T01:48:05.455Z,29.07
2018-01-15T01:50:08.885Z,26.70
2018-01-15T01:52:11.543Z,30.37
2018-01-15T01:54:14.227Z,34.13
2018-01-15T01:56:16.895Z,29.77
2018-01-15T01:58:20.301Z,29.80
2018-01-15T02:00:23.073Z,30.03
2018-01-15T02:02:25.754Z,31.20
2018-01-15T02:04:28.415Z,27.03
2018-01-15T02:06:31.815Z,28.20
2018-01-15T02:08:34.480Z,28.17
2018-01-15T02:10:37.901Z,30.80
2018-01-15T02:12:40.562Z,32.37
2018-01-15T02:14:43.238Z,29.00
2018-01-15T02:16:45.896Z,30.90
2018-01-15T02:18:49.360Z,29.80
2018-01-15T02:20:53.508Z,31.30
2018-01-15T02:22:56.188Z,30.20
2018-01-15T02:24:59.652Z,30.23
2018-01-15T02:27:03.100Z,28.23
2018-01-15T02:29:05.747Z,32.00
2018-01-15T02:31:09.183Z,31.03
2018-01-15T02:33:11.829Z,30.13
2018-01-15T02:35:14.498Z,30.73
2018-01-15T02:37:17.943Z,26.20
2018-01-15T02:39:20.623Z,29.57
2018-01-15T02:41:23.264Z,33.57
2018-01-15T02:43:25.963Z,29.67
2018-01-15T02:45:28.627Z,31.73
2018-01-15T02:47:31.256Z,25.70
2018-01-15T02:49:34.681Z,25.50
2018-01-15T02:51:37.343Z,30.10
2018-01-15T02:53:40.793Z,25.63
2018-01-15T02:55:43.449Z,26.33
2018-01-15T02:57:46.103Z,28.40
2018-01-15T02:59:48.764Z,30.77
2018-01-15T03:01:52.185Z,29.17
2018-01-15T03:03:54.831Z,27.60
2018-01-15T03:05:58.259Z,30.10
2018-01-15T03:08:00.901Z,25.83
2018-01-15T03:10:04.382Z,25.87
2018-01-15T03:12:07.800Z,30.40
2018-01-15T03:14:10.451Z,28.03
2018-01-15T03:16:13.903Z,26.63
2018-01-15T03:18:16.544Z,25.77
2018-01-15T03:20:19.184Z,28.80
2018-01-15T03:22:21.842Z,30.00
2018-01-15T03:24:24.582Z,28.30
2018-01-15T03:26:27.223Z,26.70
2018-01-15T03:28:30.671Z,28.33
2018-01-15T03:30:33.321Z,26.83
2018-01-15T03:32:35.988Z,31.87
2018-01-15T03:34:38.638Z,27.30
2018-01-15T03:36:41.283Z,31.63
2018-01-15T03:38:43.974Z,28.17
2018-01-15T03:40:46.613Z,24.50
2018-01-15T03:42:49.392Z,34.20
2018-01-15T03:44:52.074Z,26.13
2018-01-15T03:46:54.721Z,27.47
2018-01-15T03:48:57.372Z,26.03
2018-01-15T03:51:00.036Z,26.93
2018-01-15T03:53:02.684Z,28.43
2018-01-15T03:55:05.326Z,33.23
2018-01-15T03:57:08.109Z,31.53
2018-01-15T03:59:10.766Z,29.13
2018-01-15T04:01:14.295Z,26.97
2018-01-15T04:03:16.953Z,31.20
2018-01-15T04:05:19.657Z,26.33
2018-01-15T04:07:22.300Z,26.70
2018-01-15T04:09:25.700Z,28.87
2018-01-15T04:11:28.486Z,29.37
2018-01-15T04:13:31.140Z,26.80
2018-01-15T04:15:34.695Z,29.83
2018-01-15T04:17:37.344Z,30.93
2018-01-15T04:19:40.031Z,27.70
2018-01-15T04:21:42.898Z,27.17
2018-01-15T04:23:45.587Z,35.30
2018-01-15T04:25:48.253Z,29.13
2018-01-15T04:27:51.461Z,27.33
2018-01-15T04:29:54.132Z,27.10
2018-01-15T04:31:56.793Z,35.73
2018-01-15T04:33:59.440Z,22.97
2018-01-15T04:36:02.906Z,28.10
2018-01-15T04:38:05.551Z,29.93
2018-01-15T04:40:08.254Z,31.63
2018-01-15T04:42:10.920Z,30.90
2018-01-15T04:44:13.580Z,27.70
2018-01-15T04:46:16.244Z,27.60
2018-01-15T04:48:18.911Z,33.27
2018-01-15T04:50:21.603Z,27.20
2018-01-15T04:52:24.270Z,28.60
2018-01-15T04:54:26.909Z,37.57
2018-01-15T04:56:30.362Z,27.83
2018-01-15T04:58:33.018Z,29.37
2018-01-15T05:00:35.668Z,28.57
2018-01-15T05:02:39.108Z,32.20
2018-01-15T05:04:41.767Z,33.50
2018-01-15T05:06:44.513Z,28.37
2018-01-15T05:08:47.957Z,26.63
2018-01-15T05:10:50.676Z,26.73
2018-01-15T05:12:54.172Z,32.17
2018-01-15T05:14:57.576Z,27.63
2018-01-15T05:17:00.975Z,25.43
2018-01-15T05:19:03.673Z,33.87
2018-01-15T05:21:06.328Z,31.73
2018-01-15T05:23:08.989Z,33.30
2018-01-15T05:25:12.520Z,27.53
2018-01-15T05:27:15.206Z,26.33
2018-01-15T05:29:17.870Z,27.53
2018-01-15T05:31:20.605Z,32.77
2018-01-15T05:33:23.255Z,30.00
2018-01-15T05:35:25.900Z,28.60
2018-01-15T05:37:28.623Z,30.60
2018-01-15T05:39:31.273Z,27.30
2018-01-15T05:41:33.923Z,28.50
2018-01-15T05:43:36.602Z,29.13
2018-01-15T05:45:39.239Z,33.03
2018-01-15T05:47:41.880Z,29.50
2018-01-15T05:49:44.542Z,26.93
2018-01-15T05:51:47.291Z,30.33
2018-01-15T05:53:49.947Z,35.10
2018-01-15T05:55:53.390Z,31.40
2018-01-15T05:57:56.032Z,30.27
2018-01-15T05:59:59.571Z,34.67
2018-01-15T06:02:02.208Z,30.17
2018-01-15T06:04:04.857Z,33.23
2018-01-15T06:06:08.299Z,29.43
2018-01-15T06:08:10.959Z,36.07
2018-01-15T06:10:13.767Z,28.73
2018-01-15T06:12:17.464Z,27.67
2018-01-15T06:14:20.127Z,32.93
2018-01-15T06:16:22.915Z,29.20
2018-01-15T06:18:25.569Z,32.03
2018-01-15T06:20:28.247Z,32.63
2018-01-15T06:22:30.897Z,28.57
2018-01-15T06:24:34.426Z,34.23
2018-01-15T06:26:37.110Z,28.70
2018-01-15T06:28:39.785Z,28.00
2018-01-15T06:30:42.438Z,28.87
2018-01-15T06:32:45.109Z,32.73
2018-01-15T06:34:48.621Z,31.43
2018-01-15T06:36:51.274Z,30.80
2018-01-15T06:38:54.719Z,35.27
2018-01-15T06:40:57.500Z,32.43
2018-01-15T06:43:00.283Z,27.03
2018-01-15T06:45:02.996Z,33.30
2018-01-15T06:47:06.408Z,31.80
2018-01-15T06:49:09.063Z,31.13
2018-01-15T06:51:12.600Z,26.50
2018-01-15T06:53:15.372Z,31.70
2018-01-15T06:55:18.024Z,29.27
2018-01-15T06:57:21.451Z,27.30
2018-01-15T06:59:24.113Z,30.70
2018-01-15T07:01:26.767Z,31.83
2018-01-15T07:03:30.178Z,33.33
2018-01-15T07:05:32.837Z,33.77
2018-01-15T07:07:36.291Z,26.07
2018-01-15T07:09:38.928Z,38.93
2018-01-15T07:11:41.697Z,27.23
2018-01-15T07:13:44.359Z,27.53
2018-01-15T07:15:47.777Z,33.97
2018-01-15T07:17:50.463Z,28.70
2018-01-15T07:19:53.344Z,28.30
2018-01-15T07:21:56.196Z,30.97
2018-01-15T07:23:59.616Z,31.17
2018-01-15T07:26:02.432Z,29.13
2018-01-15T07:28:05.164Z,31.40
2018-01-15T07:30:07.811Z,24.73
2018-01-15T07:32:11.340Z,26.60
2018-01-15T07:34:13.984Z,24.63
2018-01-15T07:36:17.417Z,26.37
2018-01-15T07:38:20.083Z,24.67
2018-01-15T07:40:22.719Z,30.37
2018-01-15T07:42:25.452Z,29.93
2018-01-15T07:44:28.218Z,26.37
2018-01-15T07:46:30.981Z,26.47
2018-01-15T07:48:33.643Z,28.80
2018-01-15T07:50:37.052Z,29.13
2018-01-15T07:52:39.703Z,27.30
2018-01-15T07:54:42.441Z,26.53
2018-01-15T07:56:45.087Z,28.73
2018-01-15T07:58:47.743Z,26.00
2018-01-15T08:00:51.190Z,26.93
2018-01-15T08:02:53.929Z,23.03
2018-01-15T08:04:56.616Z,23.07
2018-01-15T08:06:59.327Z,28.17
2018-01-15T08:09:02.046Z,27.43
2018-01-15T08:11:05.471Z,25.70
2018-01-15T08:13:08.141Z,28.37
2018-01-15T08:15:10.784Z,28.83
2018-01-15T08:17:14.312Z,26.10
2018-01-15T08:19:16.976Z,24.17
2018-01-15T08:21:19.654Z,25.87
2018-01-15T08:23:22.339Z,26.50
2018-01-15T08:25:25.048Z,26.03
2018-01-15T08:27:27.778Z,32.10
2018-01-15T08:29:31.213Z,26.80
2018-01-15T08:31:33.857Z,23.97
2018-01-15T08:33:37.047Z,26.00
2018-01-15T08:35:39.684Z,23.30
2018-01-15T08:37:42.327Z,32.87
2018-01-15T08:39:45.052Z,25.53
2018-01-15T08:41:48.482Z,27.30
2018-01-15T08:43:51.138Z,20.70
2018-01-15T08:48:59.750Z,24.63
2018-01-15T08:51:02.441Z,21.90
2018-01-15T08:53:05.918Z,22.87
2018-01-15T08:55:08.572Z,22.67
2018-01-15T08:57:11.232Z,24.00
2018-01-15T08:59:13.877Z,23.83
2018-01-15T09:01:16.534Z,22.97
2018-01-15T09:03:19.970Z,23.23
2018-01-15T09:05:22.604Z,23.43
2018-01-15T09:07:26.066Z,25.20
2018-01-15T09:09:28.898Z,26.43
2018-01-15T09:11:31.551Z,28.37
2018-01-15T09:13:35.035Z,23.63
2018-01-15T09:15:37.781Z,24.13
2018-01-15T09:17:40.416Z,26.83
2018-01-15T09:19:43.164Z,31.73
2018-01-15T09:21:45.800Z,31.93
2018-01-15T09:23:48.474Z,28.37
2018-01-15T09:25:51.148Z,31.77
2018-01-15T09:27:53.806Z,25.67
2018-01-15T09:29:58.641Z,31.93
2018-01-15T09:32:01.302Z,23.03
2018-01-15T09:34:04.088Z,23.17
2018-01-15T09:36:06.762Z,28.53
2018-01-15T09:38:09.409Z,24.70
2018-01-15T09:40:12.863Z,24.17
2018-01-15T09:42:15.505Z,31.47
2018-01-15T09:44:18.201Z,25.83
2018-01-15T09:46:20.849Z,28.20
2018-01-15T09:48:23.510Z,29.10
2018-01-15T09:50:26.952Z,25.23
2018-01-15T09:52:29.641Z,27.63
2018-01-15T09:54:32.325Z,26.20
2018-01-15T09:56:34.991Z,31.40
2018-01-15T09:58:37.742Z,24.40
2018-01-15T10:00:40.414Z,31.10
2018-01-15T10:02:43.098Z,20.80
2018-01-15T10:04:45.748Z,24.00
2018-01-15T10:06:49.214Z,25.27
2018-01-15T10:08:51.870Z,27.47
2018-01-15T10:10:54.526Z,26.53
2018-01-15T10:12:57.234Z,25.57
2018-01-15T10:14:59.876Z,21.03
2018-01-15T10:17:02.515Z,24.77
2018-01-15T10:19:06.117Z,29.90
2018-01-15T10:21:09.521Z,25.37
2018-01-15T10:23:12.157Z,22.87
2018-01-15T10:25:14.876Z,19.23
2018-01-15T10:27:17.566Z,21.43
2018-01-15T10:29:20.348Z,24.80
2018-01-15T10:31:22.999Z,29.90
2018-01-15T10:33:25.650Z,20.43
2018-01-15T10:35:28.335Z,22.63
2018-01-15T10:37:31.773Z,20.93
2018-01-15T10:39:34.449Z,21.70
2018-01-15T10:41:37.248Z,20.40
2018-01-15T10:43:39.896Z,16.70
2018-01-15T10:45:42.589Z,21.70
2018-01-15T10:47:45.298Z,16.77
2018-01-15T10:49:47.954Z,12.20
2018-01-15T10:51:50.614Z,10.97
2018-01-15T10:53:53.270Z,11.43
2018-01-15T10:55:56.079Z,10.13
2018-01-15T10:57:58.892Z,8.40
2018-01-15T11:00:01.528Z,7.70
2018-01-15T11:02:04.394Z,9.63
2018-01-15T11:04:07.219Z,10.90
2018-01-15T11:06:09.852Z,7.50
2018-01-15T11:08:12.619Z,6.90
2018-01-15T11:10:15.280Z,12.30
2018-01-15T11:12:18.807Z,10.07
2018-01-15T11:14:21.479Z,10.20
2018-01-15T11:16:24.159Z,6.27
2018-01-15T11:18:26.898Z,6.30
2018-01-15T11:20:30.302Z,6.27
2018-01-15T11:22:32.996Z,14.73
2018-01-15T11:24:35.781Z,8.13
2018-01-15T11:26:38.470Z,8.93
2018-01-15T11:28:41.182Z,8.23
2018-01-15T11:30:43.847Z,12.20
2018-01-15T11:32:46.491Z,6.37
2018-01-15T11:34:49.144Z,5.80
2018-01-15T11:36:51.810Z,8.27
2018-01-15T11:38:55.234Z,8.10
2018-01-15T11:40:57.918Z,10.77
2018-01-15T11:43:00.615Z,6.80
2018-01-15T11:45:03.258Z,5.73
2018-01-15T11:47:05.914Z,7.57
2018-01-15T11:49:08.623Z,5.33
2018-01-15T11:51:11.278Z,9.70
2018-01-15T11:53:13.970Z,5.53
2018-01-15T11:55:16.625Z,6.13
2018-01-15T11:57:19.411Z,6.70
2018-01-15T11:59:22.093Z,5.03
2018-01-15T12:01:24.823Z,7.53
2018-01-15T12:03:27.471Z,6.10
2018-01-15T12:05:30.128Z,5.90
2018-01-15T12:07:32.764Z,8.00
2018-01-15T12:09:36.238Z,7.13
2018-01-15T12:11:39.058Z,6.10
2018-01-15T12:13:41.712Z,5.73
2018-01-15T12:15:45.213Z,6.00
2018-01-15T12:17:48.631Z,6.40
2018-01-15T12:19:51.344Z,8.10
2018-01-15T12:21:54.037Z,6.20
2018-01-15T12:23:56.668Z,5.20
2018-01-15T12:25:59.312Z,4.67
2018-01-15T12:28:02.754Z,9.00
2018-01-15T12:30:05.457Z,5.87
2018-01-15T12:32:08.338Z,6.90
2018-01-15T12:34:11.108Z,9.03
2018-01-15T12:36:13.895Z,29.57
2018-01-15T12:38:17.340Z,5.07
2018-01-15T12:40:20.003Z,6.60
2018-01-15T12:42:22.657Z,4.80
2018-01-15T12:44:26.109Z,5.47
2018-01-15T12:46:28.936Z,4.30
2018-01-15T12:48:32.346Z,3.83
2018-01-15T12:50:35.026Z,4.37
2018-01-15T12:52:37.663Z,5.10
2018-01-15T12:54:40.313Z,4.13
2018-01-15T12:56:42.968Z,5.20
2018-01-15T12:58:45.667Z,3.97
2018-01-15T13:00:48.389Z,4.50
2018-01-15T13:02:51.894Z,5.40
2018-01-15T13:04:54.655Z,4.43
2018-01-15T13:06:58.400Z,4.27
2018-01-15T13:09:01.155Z,5.30
2018-01-15T13:11:03.803Z,7.30
2018-01-15T13:13:06.461Z,5.77
2018-01-15T13:15:09.088Z,4.30
2018-01-15T13:17:11.734Z,5.70
2018-01-15T13:19:15.156Z,7.70
2018-01-15T13:21:17.797Z,6.80
2018-01-15T13:23:20.482Z,4.60
2018-01-15T13:25:23.917Z,5.30
2018-01-15T13:27:26.562Z,5.47
2018-01-15T13:29:29.990Z,4.57
2018-01-15T13:31:32.650Z,7.70
2018-01-15T13:33:35.320Z,4.73
2018-01-15T13:35:38.001Z,7.70
2018-01-15T13:37:40.639Z,4.93
2018-01-15T13:39:43.288Z,5.23
2018-01-15T13:41:45.956Z,7.73
2018-01-15T13:43:48.645Z,5.10
2018-01-15T13:45:51.306Z,5.70
2018-01-15T13:47:53.987Z,4.70
2018-01-15T13:49:56.646Z,5.13
2018-01-15T13:51:59.292Z,3.70
2018-01-15T13:54:02.742Z,4.27
2018-01-15T13:56:05.407Z,4.43
2018-01-15T13:58:08.054Z,4.50
2018-01-15T14:00:10.744Z,4.10
2018-01-15T14:02:13.379Z,4.77
2018-01-15T14:04:16.800Z,4.63
2018-01-15T14:06:19.540Z,4.43
2018-01-15T14:08:22.236Z,4.57
2018-01-15T14:10:25.672Z,4.63
2018-01-15T14:12:28.389Z,4.10
2018-01-15T14:14:31.090Z,4.20
2018-01-15T14:16:34.536Z,4.40
2018-01-15T14:18:37.266Z,4.10
2018-01-15T14:20:39.914Z,5.37
2018-01-15T14:22:42.567Z,3.57
2018-01-15T14:24:45.277Z,5.33
2018-01-15T14:26:48.670Z,6.10
2018-01-15T14:28:52.112Z,3.70
2018-01-15T14:30:54.765Z,3.00
2018-01-15T14:32:57.395Z,3.37
2018-01-15T14:35:00.055Z,3.50
2018-01-15T14:37:02.697Z,3.77
2018-01-15T14:39:05.360Z,4.10
2018-01-15T14:41:08.045Z,3.93
2018-01-15T14:43:10.689Z,3.73
2018-01-15T14:45:13.347Z,3.80
2018-01-15T14:47:15.995Z,5.07
2018-01-15T14:49:18.641Z,4.40
2018-01-15T14:51:21.305Z,5.17
2018-01-15T14:53:24.782Z,4.10
2018-01-15T14:55:27.429Z,7.50
2018-01-15T14:57:30.094Z,4.20
2018-01-15T14:59:32.746Z,4.63
2018-01-15T15:01:35.609Z,3.53
2018-01-15T15:03:39.022Z,5.33
2018-01-15T15:05:41.651Z,4.07
2018-01-15T15:07:44.329Z,3.93
2018-01-15T15:09:47.001Z,4.07
2018-01-15T15:11:49.833Z,4.33
2018-01-15T15:13:52.535Z,3.70
2018-01-15T15:15:55.205Z,3.80
2018-01-15T15:17:57.922Z,3.20
2018-01-15T15:20:00.603Z,3.37
2018-01-15T15:22:04.005Z,3.87
2018-01-15T15:24:07.535Z,3.43
2018-01-15T15:26:10.163Z,3.40
2018-01-15T15:28:12.808Z,3.10
2018-01-15T15:30:15.469Z,3.53
2018-01-15T15:32:18.118Z,2.77
2018-01-15T15:34:21.954Z,2.90
2018-01-15T15:36:24.616Z,2.60
2018-01-15T15:38:27.246Z,3.63
2018-01-15T15:40:30.008Z,2.97
2018-01-15T15:42:32.648Z,2.60
2018-01-15T15:44:35.297Z,2.07
2018-01-15T15:46:37.961Z,3.57
2018-01-15T15:48:41.349Z,2.27
2018-01-15T15:50:44.771Z,2.37
2018-01-15T15:52:47.442Z,1.90
2018-01-15T15:54:50.116Z,1.90
2018-01-15T15:56:52.745Z,2.50
2018-01-15T15:58:55.395Z,2.20
2018-01-15T16:00:58.036Z,1.90
2018-01-15T16:03:01.466Z,2.27
2018-01-15T16:05:04.154Z,2.20
2018-01-15T16:07:06.801Z,1.90
2018-01-15T16:09:09.466Z,2.23
2018-01-15T16:11:12.125Z,3.00
2018-01-15T16:13:15.524Z,1.87
2018-01-15T16:15:18.961Z,1.90
2018-01-15T16:17:21.593Z,2.80
2018-01-15T16:19:25.015Z,2.77
2018-01-15T16:21:35.396Z,2.70
2018-01-15T16:23:38.024Z,2.50
2018-01-15T16:25:41.461Z,1.70
2018-01-15T16:27:45.415Z,5.80
2018-01-15T16:29:48.811Z,2.27
2018-01-15T16:31:52.227Z,2.83
2018-01-15T16:33:54.947Z,7.97
2018-01-15T16:35:58.011Z,1.90
2018-01-15T16:38:00.687Z,2.60
2018-01-15T16:40:03.379Z,1.80
2018-01-15T16:42:06.107Z,6.00
2018-01-15T16:44:08.808Z,5.20
2018-01-15T16:46:11.652Z,4.83
2018-01-15T16:48:15.106Z,1.50
2018-01-15T16:50:25.294Z,2.00
2018-01-15T16:52:28.706Z,1.77
2018-01-15T16:54:31.381Z,1.53
2018-01-15T16:56:34.071Z,1.70
2018-01-15T16:58:36.738Z,4.90
2018-01-15T17:00:39.369Z,2.20
2018-01-15T17:02:42.017Z,1.67
2018-01-15T17:04:44.679Z,1.43
2018-01-15T17:06:47.325Z,2.97
2018-01-15T17:08:50.745Z,1.40
2018-01-15T17:10:53.412Z,2.53
2018-01-15T17:12:56.070Z,1.70
2018-01-15T17:14:59.497Z,2.47
2018-01-15T17:17:02.137Z,3.20
2018-01-15T17:19:05.842Z,2.43
2018-01-15T17:21:08.514Z,1.30
2018-01-15T17:23:11.908Z,1.27
2018-01-15T17:25:15.544Z,1.83
2018-01-15T17:27:18.185Z,1.50
2018-01-15T17:29:21.577Z,1.10
2018-01-15T17:31:25.004Z,4.70
2018-01-15T17:33:27.665Z,9.63
2018-01-15T17:35:30.326Z,2.20
2018-01-15T17:37:33.753Z,1.40
2018-01-15T17:39:36.672Z,1.30
2018-01-15T17:41:39.319Z,1.30
2018-01-15T17:43:41.985Z,1.20
2018-01-15T17:45:44.632Z,1.20
2018-01-15T17:47:47.299Z,1.67
2018-01-15T17:49:49.977Z,1.43
2018-01-15T17:51:52.629Z,1.40
2018-01-15T17:53:55.283Z,0.90
2018-01-15T17:55:57.930Z,2.10
2018-01-15T17:58:00.680Z,2.00
2018-01-15T18:00:04.242Z,0.87
2018-01-15T18:02:06.886Z,1.73
2018-01-15T18:04:09.668Z,6.23
2018-01-15T18:06:12.344Z,1.03
2018-01-15T18:08:14.993Z,0.80
2018-01-15T18:10:17.644Z,0.97
2018-01-15T18:12:20.270Z,1.47
2018-01-15T18:14:22.939Z,1.43
2018-01-15T18:16:25.718Z,1.80
2018-01-15T18:18:28.441Z,1.47
2018-01-15T18:20:31.131Z,1.30
2018-01-15T18:22:34.567Z,1.80
2018-01-15T18:24:37.242Z,0.70
2018-01-15T18:26:39.893Z,4.87
2018-01-15T18:28:43.311Z,2.20
2018-01-15T18:30:45.935Z,2.90
2018-01-15T18:32:48.605Z,0.97
2018-01-15T18:34:51.338Z,2.80
2018-01-15T18:36:54.030Z,1.20
2018-01-15T18:38:56.705Z,1.10
2018-01-15T18:40:59.388Z,1.03
2018-01-15T18:43:02.173Z,1.20
2018-01-15T18:45:05.001Z,1.00
2018-01-15T18:47:07.720Z,0.90
2018-01-15T18:49:10.521Z,0.90
2018-01-15T18:51:13.232Z,0.70
2018-01-15T18:53:16.719Z,1.10
2018-01-15T18:55:20.138Z,1.03
2018-01-15T18:57:22.858Z,1.50
2018-01-15T18:59:25.536Z,0.80
2018-01-15T19:01:28.205Z,1.60
2018-01-15T19:03:30.908Z,0.80
2018-01-15T19:05:34.857Z,0.73
2018-01-15T19:07:37.520Z,1.10
2018-01-15T19:09:41.913Z,2.20
2018-01-15T19:11:45.320Z,2.00
2018-01-15T19:13:48.747Z,0.80
2018-01-15T19:15:51.462Z,0.70
2018-01-15T19:17:54.119Z,1.50
2018-01-15T19:19:57.595Z,1.53
2018-01-15T19:22:00.721Z,1.00
2018-01-15T19:24:03.538Z,1.17
2018-01-15T19:26:06.339Z,2.00
2018-01-15T19:28:09.018Z,6.77
2018-01-15T19:30:11.764Z,1.00
2018-01-15T19:32:15.228Z,0.70
2018-01-15T19:34:17.876Z,0.80
2018-01-15T19:39:01.206Z,1.30
2018-01-15T19:41:03.820Z,1.03
2018-01-15T19:43:22.554Z,0.93
2018-01-15T19:45:30.901Z,1.60
2018-01-15T19:47:39.958Z,1.90
2018-01-15T19:49:48.399Z,1.67
2018-01-15T19:51:56.649Z,2.57
2018-01-15T19:54:05.832Z,0.97
2018-01-15T19:56:14.904Z,1.00
2018-01-15T20:01:03.125Z,0.80
2018-01-15T20:03:12.222Z,1.00
2018-01-15T20:05:20.517Z,0.60
2018-01-15T20:07:28.962Z,1.10
2018-01-15T20:12:14.469Z,1.67
2018-01-15T20:14:17.136Z,1.40
2018-01-15T20:16:20.418Z,1.07
2018-01-15T20:18:24.918Z,1.63
2018-01-15T20:20:27.560Z,1.90
2018-01-15T20:22:30.979Z,1.80
2018-01-15T20:24:33.642Z,1.00
2018-01-15T20:26:36.390Z,15.23
2018-01-15T20:28:39.099Z,1.07
2018-01-15T20:30:41.748Z,1.13
2018-01-15T20:32:44.469Z,1.37
2018-01-15T20:34:47.145Z,1.33
2018-01-15T20:36:49.930Z,4.70
2018-01-15T20:39:06.403Z,1.10
2018-01-15T20:41:09.127Z,1.37
2018-01-15T20:43:12.079Z,1.23
2018-01-15T20:45:14.745Z,1.53
2018-01-15T20:47:17.418Z,1.30
2018-01-15T20:49:20.152Z,1.47
2018-01-15T20:51:22.858Z,1.77
2018-01-15T20:53:26.255Z,1.40
2018-01-15T20:55:29.676Z,2.07
2018-01-15T20:57:32.309Z,1.60
2018-01-15T20:59:35.007Z,1.60
2018-01-15T21:01:37.694Z,2.70
2018-01-15T21:03:40.362Z,1.70
2018-01-15T21:05:43.009Z,3.83
2018-01-15T21:07:45.674Z,2.40
2018-01-15T21:09:48.336Z,2.03
2018-01-15T21:11:51.129Z,1.97
2018-01-15T21:13:53.822Z,3.70
2018-01-15T21:15:56.466Z,3.73
2018-01-15T21:17:59.163Z,3.40
2018-01-15T21:20:01.806Z,3.30
2018-01-15T21:22:04.454Z,3.30
2018-01-15T21:24:07.120Z,3.83
2018-01-15T21:26:10.535Z,3.50
2018-01-15T21:28:13.176Z,3.40
2018-01-15T21:30:16.614Z,5.17
2018-01-15T21:32:19.260Z,6.47
2018-01-15T21:34:22.677Z,6.67
2018-01-15T21:36:25.361Z,4.70
2018-01-15T21:38:28.077Z,6.47
2018-01-15T21:40:30.813Z,4.90
2018-01-15T21:42:33.525Z,4.27
2018-01-15T21:44:36.440Z,4.33
2018-01-15T21:46:39.135Z,5.13
2018-01-15T21:48:41.811Z,4.80
2018-01-15T21:50:44.515Z,5.13
2018-01-15T21:52:47.165Z,4.80
2018-01-15T21:54:49.905Z,4.60
2018-01-15T21:56:52.558Z,4.40
2018-01-15T21:58:55.195Z,4.60
2018-01-15T22:00:57.832Z,4.23
2018-01-15T22:03:00.503Z,4.57
2018-01-15T22:05:03.229Z,4.87
2018-01-15T22:07:05.885Z,6.80
2018-01-15T22:09:08.566Z,5.57
2018-01-15T22:11:11.222Z,6.13
2018-01-15T22:13:14.644Z,4.80
2018-01-15T22:15:17.289Z,5.03
2018-01-15T22:17:20.684Z,5.57
2018-01-15T22:19:24.221Z,5.50
2018-01-15T22:21:26.880Z,11.17
2018-01-15T22:23:29.545Z,6.10
2018-01-15T22:25:32.210Z,6.37
2018-01-15T22:27:35.615Z,5.70
2018-01-15T22:29:39.034Z,6.70
2018-01-15T22:31:41.660Z,6.30
2018-01-15T22:33:44.310Z,6.53
2018-01-15T22:35:46.986Z,8.30
2018-01-15T22:37:49.633Z,6.83
2018-01-15T22:39:52.272Z,10.90
2018-01-15T22:41:55.701Z,6.80
2018-01-15T22:43:58.350Z,6.20
2018-01-15T22:46:01.766Z,7.87
2018-01-15T22:48:04.439Z,7.17
2018-01-15T22:50:07.067Z,7.30
2018-01-15T22:52:09.718Z,13.40
2018-01-15T22:54:12.367Z,7.57
2018-01-15T22:56:15.069Z,5.60
2018-01-15T22:58:17.720Z,5.83
2018-01-15T23:00:20.378Z,4.90
2018-01-15T23:02:24.003Z,4.43
2018-01-15T23:04:26.707Z,6.53
2018-01-15T23:06:29.357Z,5.93
2018-01-15T23:08:32.041Z,4.67
2018-01-15T23:10:34.702Z,6.47
2018-01-15T23:12:37.396Z,4.93
2018-01-15T23:14:40.062Z,7.33
2018-01-15T23:16:42.709Z,7.33
2018-01-15T23:18:45.390Z,7.80
2018-01-15T23:20:48.061Z,7.33
2018-01-15T23:22:50.718Z,4.97
2018-01-15T23:24:53.353Z,8.03
2018-01-15T23:26:56.014Z,5.17
2018-01-15T23:28:58.656Z,8.97
2018-01-15T23:31:02.065Z,3.87
2018-01-15T23:33:04.751Z,6.10
2018-01-15T23:35:07.391Z,6.80
2018-01-15T23:37:10.056Z,7.87
2018-01-15T23:39:12.773Z,8.50
2018-01-15T23:41:15.564Z,4.23
2018-01-15T23:43:18.199Z,4.87
2018-01-15T23:45:21.614Z,4.10
2018-01-15T23:47:24.270Z,4.90
2018-01-15T23:49:27.691Z,5.80
2018-01-15T23:51:30.357Z,4.60
2018-01-15T23:53:33.040Z,4.23
2018-01-15T23:55:35.679Z,7.00
2018-01-15T23:57:38.380Z,5.90
2018-01-15T23:59:41.775Z,3.33
